Time;durP1;ratioP1;P1;durP2;ratioP2;P2;SDS_P1;SDS_P2;PMS_P1;PMS_P2;Temp;Humidity;BMP_temperature;BMP_pressure;BME280_temperature;BME280_humidity;BME280_pressure;Samples;Min_cycle;Max_cycle;Signal;HPM_P1;HPM_P2
2023/09/10 00:01:07;;;;;;;36.42;33.15;;;18.90;99.90;;;;;;5004349;28;20078;-58
2023/09/10 00:04:23;;;;;;;36.60;33.25;;;18.90;99.90;;;;;;5022160;28;20041;-58
2023/09/10 00:06:48;;;;;;;33.65;30.52;;;18.80;99.90;;;;;;5005375;28;20061;-58
2023/09/10 00:09:14;;;;;;;31.52;28.45;;;18.80;99.90;;;;;;5017914;28;20038;-59
2023/09/10 00:11:40;;;;;;;36.08;32.70;;;18.80;99.90;;;;;;5018787;28;21088;-59
2023/09/10 00:14:06;;;;;;;35.47;32.20;;;18.80;99.90;;;;;;5004759;28;20536;-59
2023/09/10 00:16:31;;;;;;;30.42;27.73;;;18.70;99.90;;;;;;5000448;28;20052;-59
2023/09/10 00:18:57;;;;;;;31.52;28.73;;;18.70;99.90;;;;;;4999743;28;20038;-59
2023/09/10 00:21:23;;;;;;;28.85;26.25;;;18.70;99.90;;;;;;4988308;28;20068;-59
2023/09/10 00:23:48;;;;;;;31.00;28.20;;;18.70;99.90;;;;;;4999946;28;20148;-57
2023/09/10 00:26:14;;;;;;;27.33;24.83;;;18.70;99.90;;;;;;5015512;28;20046;-58
2023/09/10 00:28:40;;;;;;;27.00;24.58;;;18.60;99.90;;;;;;5001454;28;20041;-59
2023/09/10 00:31:07;;;;;;;28.92;26.33;;;18.60;99.90;;;;;;5003111;28;20167;-59
2023/09/10 00:33:33;;;;;;;27.02;24.45;;;18.60;99.90;;;;;;5003281;28;20485;-58
2023/09/10 00:35:59;;;;;;;29.95;27.23;;;18.60;99.90;;;;;;5018570;28;20049;-59
2023/09/10 00:38:25;;;;;;;27.42;24.92;;;18.50;99.90;;;;;;5002959;28;20069;-59
2023/09/10 00:40:51;;;;;;;29.65;26.85;;;18.50;99.90;;;;;;5016679;28;20547;-58
2023/09/10 00:43:16;;;;;;;29.17;26.48;;;18.40;99.90;;;;;;5001777;28;20046;-56
2023/09/10 00:45:42;;;;;;;27.70;25.05;;;18.40;99.90;;;;;;4999876;28;20373;-58
2023/09/10 00:48:08;;;;;;;28.08;25.58;;;18.40;99.90;;;;;;5000970;28;20034;-59
2023/09/10 00:50:34;;;;;;;28.92;26.23;;;18.40;99.90;;;;;;5020346;28;20073;-59
2023/09/10 00:53:01;;;;;;;30.15;27.35;;;18.40;99.90;;;;;;5004111;28;20149;-58
2023/09/10 00:55:29;;;;;;;30.00;27.10;;;18.30;99.90;;;;;;4999980;28;20038;-58
2023/09/10 00:57:56;;;;;;;30.40;27.52;;;18.30;99.90;;;;;;5014638;28;20048;-58
2023/09/10 01:00:22;;;;;;;25.67;23.27;;;18.30;99.90;;;;;;5020741;28;20476;-56
2023/09/10 01:02:49;;;;;;;21.48;19.50;;;18.30;99.90;;;;;;4998797;28;20042;-58
2023/09/10 01:05:17;;;;;;;30.00;27.27;;;18.30;99.90;;;;;;5019536;28;20808;-59
2023/09/10 01:07:44;;;;;;;30.20;27.48;;;18.30;99.90;;;;;;5019152;28;20037;-59
2023/09/10 01:10:10;;;;;;;31.77;28.88;;;18.30;99.90;;;;;;5001827;28;20097;-58
2023/09/10 01:12:54;;;;;;;30.83;27.92;;;18.30;99.90;;;;;;5002616;28;20057;-58
2023/09/10 01:15:38;;;;;;;28.75;25.95;;;18.30;99.90;;;;;;4990741;28;20064;-59
2023/09/10 01:18:22;;;;;;;28.08;25.60;;;18.20;99.90;;;;;;5001046;28;20059;-59
2023/09/10 01:20:57;;;;;;;26.13;23.70;;;18.20;99.90;;;;;;5006212;28;20038;-58
2023/09/10 01:23:56;;;;;;;23.95;21.65;;;18.20;99.90;;;;;;5005976;28;20084;-58
2023/09/10 01:26:22;;;;;;;24.30;21.90;;;18.10;99.90;;;;;;4987205;28;20042;-60
2023/09/10 01:28:48;;;;;;;23.67;21.50;;;18.10;99.90;;;;;;5005627;28;20494;-58
2023/09/10 01:31:14;;;;;;;29.10;26.48;;;18.10;99.90;;;;;;5000652;28;20075;-58
2023/09/10 01:33:51;;;;;;;24.35;22.15;;;18.10;99.90;;;;;;4999671;28;20509;-58
2023/09/10 01:36:35;;;;;;;26.35;23.95;;;18.10;99.90;;;;;;4999353;28;20038;-59
2023/09/10 01:39:30;;;;;;;34.17;30.88;;;18.10;99.90;;;;;;4996618;28;20038;-59
2023/09/10 01:41:57;;;;;;;34.90;31.77;;;18.10;99.90;;;;;;4994092;28;20510;-59
2023/09/10 01:44:25;;;;;;;33.15;29.90;;;18.10;99.90;;;;;;5000088;28;20267;-59
2023/09/10 01:46:52;;;;;;;35.40;32.13;;;18.00;99.90;;;;;;5003059;28;20104;-58
2023/09/10 01:49:18;;;;;;;33.05;29.95;;;18.00;99.90;;;;;;5001100;28;20052;-58
2023/09/10 01:51:43;;;;;;;30.52;26.15;;;18.00;99.90;;;;;;5002469;28;20046;-58
2023/09/10 01:54:09;;;;;;;32.47;29.27;;;18.00;99.90;;;;;;5000832;28;20095;-59
2023/09/10 01:56:35;;;;;;;31.38;28.48;;;18.00;99.90;;;;;;4995811;28;20049;-58
2023/09/10 01:59:00;;;;;;;30.33;27.50;;;18.00;99.90;;;;;;4983704;28;20529;-59
2023/09/10 02:01:26;;;;;;;31.02;27.95;;;18.00;99.90;;;;;;5016880;28;20038;-58
2023/09/10 02:03:52;;;;;;;29.55;26.85;;;17.90;99.90;;;;;;4998865;28;20052;-59
2023/09/10 02:06:17;;;;;;;31.30;28.30;;;17.90;99.90;;;;;;4967910;28;20505;-59
2023/09/10 02:08:43;;;;;;;25.45;22.95;;;17.90;99.90;;;;;;4998646;28;20056;-58
2023/09/10 02:11:09;;;;;;;25.55;23.30;;;17.90;99.90;;;;;;4988202;28;20050;-58
2023/09/10 02:13:35;;;;;;;25.77;23.27;;;17.90;99.90;;;;;;5007041;28;20413;-59
2023/09/10 02:16:00;;;;;;;31.45;28.55;;;17.90;99.90;;;;;;5001657;28;20038;-59
2023/09/10 02:18:28;;;;;;;23.70;21.60;;;17.90;99.90;;;;;;4982793;28;20135;-59
2023/09/10 02:20:54;;;;;;;31.65;28.70;;;17.90;99.90;;;;;;4999502;28;20405;-58
2023/09/10 02:23:21;;;;;;;31.33;28.33;;;17.80;99.90;;;;;;4996658;28;20038;-59
2023/09/10 02:25:46;;;;;;;29.80;26.83;;;17.80;99.90;;;;;;4998598;28;20053;-58
2023/09/10 02:28:12;;;;;;;27.38;24.88;;;17.80;99.90;;;;;;4966276;28;20034;-59
2023/09/10 02:30:38;;;;;;;29.65;26.95;;;17.80;99.90;;;;;;5015374;28;20127;-59
2023/09/10 02:33:04;;;;;;;28.73;26.05;;;17.80;99.90;;;;;;5001266;28;20080;-58
2023/09/10 02:35:29;;;;;;;30.25;27.45;;;17.70;99.90;;;;;;5003438;28;20501;-58
2023/09/10 02:37:55;;;;;;;30.27;27.38;;;17.70;99.90;;;;;;5020761;28;20097;-58
2023/09/10 02:40:21;;;;;;;28.25;25.55;;;17.70;99.90;;;;;;5005465;28;20108;-58
2023/09/10 02:42:46;;;;;;;30.33;27.48;;;17.70;99.90;;;;;;5004080;28;20060;-57
2023/09/10 02:45:12;;;;;;;30.05;27.05;;;17.70;99.90;;;;;;5024546;28;20037;-58
2023/09/10 02:47:38;;;;;;;36.00;32.33;;;17.70;99.90;;;;;;4979281;28;20049;-58
2023/09/10 02:50:04;;;;;;;34.03;30.63;;;17.70;99.90;;;;;;5002692;28;20487;-58
2023/09/10 02:52:30;;;;;;;33.78;30.42;;;17.60;99.90;;;;;;5008768;28;20035;-58
2023/09/10 02:54:59;;;;;;;33.58;30.38;;;17.60;99.90;;;;;;5009597;28;20046;-58
2023/09/10 02:57:25;;;;;;;29.33;26.50;;;17.60;99.90;;;;;;5009441;28;20424;-58
2023/09/10 02:59:51;;;;;;;33.58;30.30;;;17.60;99.90;;;;;;5007026;28;20045;-59
2023/09/10 03:02:16;;;;;;;36.75;33.08;;;17.60;99.90;;;;;;5002345;28;20409;-58
2023/09/10 03:04:42;;;;;;;36.47;32.88;;;17.60;99.90;;;;;;5004777;28;20049;-59
2023/09/10 03:07:08;;;;;;;28.42;25.52;;;17.60;99.90;;;;;;4974406;28;20576;-57
2023/09/10 03:09:33;;;;;;;32.05;28.95;;;17.70;99.90;;;;;;5002841;28;20042;-58
2023/09/10 03:12:22;;;;;;;36.10;32.53;;;17.60;99.90;;;;;;5020663;28;20050;-58
2023/09/10 03:14:49;;;;;;;35.60;32.15;;;17.70;99.90;;;;;;5002236;28;20044;-58
2023/09/10 03:17:14;;;;;;;36.65;33.15;;;17.60;99.90;;;;;;5008641;28;20080;-59
2023/09/10 03:19:40;;;;;;;36.75;33.10;;;17.60;99.90;;;;;;5019904;28;20075;-58
2023/09/10 03:22:06;;;;;;;36.97;33.35;;;17.60;99.90;;;;;;5020685;28;20117;-59
2023/09/10 03:24:35;;;;;;;27.83;25.13;;;17.60;99.90;;;;;;4985637;28;20042;-58
2023/09/10 03:27:02;;;;;;;37.65;34.13;;;17.50;99.90;;;;;;4989699;28;20440;-59
2023/09/10 03:29:28;;;;;;;29.83;27.00;;;17.50;99.90;;;;;;5004770;28;20038;-58
2023/09/10 03:31:54;;;;;;;30.00;27.27;;;17.50;99.90;;;;;;5005092;28;20045;-58
2023/09/10 03:34:20;;;;;;;26.30;23.88;;;17.40;99.90;;;;;;5004669;28;20045;-58
2023/09/10 03:36:45;;;;;;;32.05;29.15;;;17.40;99.90;;;;;;5003596;28;20049;-58
2023/09/10 03:39:12;;;;;;;31.10;28.10;;;17.40;99.90;;;;;;5001792;28;20038;-57
2023/09/10 03:41:38;;;;;;;33.17;30.17;;;17.40;99.90;;;;;;5004783;28;20054;-57
2023/09/10 03:44:03;;;;;;;31.35;28.45;;;17.50;99.90;;;;;;4998526;28;20049;-57
2023/09/10 03:46:29;;;;;;;34.63;31.52;;;17.50;99.90;;;;;;5001979;28;20096;-57
2023/09/10 03:48:55;;;;;;;33.13;29.98;;;17.40;99.90;;;;;;5007596;28;20042;-58
2023/09/10 03:51:20;;;;;;;31.52;28.63;;;17.40;99.90;;;;;;5010417;28;20136;-59
2023/09/10 03:53:46;;;;;;;30.02;27.23;;;17.40;99.90;;;;;;5005926;28;20642;-59
2023/09/10 03:56:12;;;;;;;31.70;28.80;;;17.40;99.90;;;;;;5019109;28;20484;-59
2023/09/10 03:58:37;;;;;;;31.45;28.35;;;17.30;99.90;;;;;;4999270;28;20193;-58
2023/09/10 04:01:03;;;;;;;33.85;30.63;;;17.30;99.90;;;;;;5018606;28;20026;-58
2023/09/10 04:03:29;;;;;;;35.25;31.90;;;17.30;99.90;;;;;;5004236;28;20262;-59
2023/09/10 04:05:55;;;;;;;34.65;31.38;;;17.30;99.90;;;;;;5020103;28;20410;-58
2023/09/10 04:08:21;;;;;;;28.35;25.83;;;17.30;99.90;;;;;;5005836;28;20049;-58
2023/09/10 04:10:46;;;;;;;28.50;25.92;;;17.30;99.90;;;;;;5018939;28;20045;-58
2023/09/10 04:13:12;;;;;;;31.48;28.58;;;17.30;99.90;;;;;;4986322;28;20073;-58
2023/09/10 04:15:38;;;;;;;28.65;26.05;;;17.20;99.90;;;;;;4982343;28;20045;-58
2023/09/10 04:18:05;;;;;;;25.45;23.25;;;17.20;99.90;;;;;;4996676;28;20049;-58
2023/09/10 04:20:31;;;;;;;27.98;25.48;;;17.20;99.90;;;;;;5000287;28;20042;-58
2023/09/10 04:23:10;;;;;;;29.60;26.77;;;17.10;99.90;;;;;;5021992;28;20045;-58
2023/09/10 04:25:36;;;;;;;25.65;23.35;;;17.20;99.90;;;;;;4987319;28;20045;-58
2023/09/10 04:28:02;;;;;;;30.48;27.58;;;17.20;99.90;;;;;;5013224;28;20568;-57
2023/09/10 04:30:30;;;;;;;35.97;32.58;;;17.20;99.90;;;;;;4987660;28;20076;-57
2023/09/10 04:32:56;;;;;;;37.83;34.00;;;17.20;99.90;;;;;;5001380;28;20038;-57
2023/09/10 04:35:22;;;;;;;32.60;29.55;;;17.20;99.90;;;;;;4987396;28;20132;-58
2023/09/10 04:37:48;;;;;;;35.75;32.10;;;17.10;99.90;;;;;;5001221;28;20042;-57
2023/09/10 04:40:13;;;;;;;33.60;30.60;;;17.10;99.90;;;;;;5007150;28;20053;-57
2023/09/10 04:42:39;;;;;;;35.58;32.17;;;17.10;99.90;;;;;;5000470;28;20085;-58
2023/09/10 04:45:05;;;;;;;35.05;31.83;;;17.10;99.90;;;;;;5020827;28;20046;-57
2023/09/10 04:47:31;;;;;;;27.88;25.17;;;17.10;99.90;;;;;;5002055;28;20042;-57
2023/09/10 04:49:57;;;;;;;29.80;26.98;;;17.10;99.90;;;;;;5020244;28;20038;-58
2023/09/10 04:52:22;;;;;;;27.65;24.90;;;17.10;99.90;;;;;;5001651;28;20129;-58
2023/09/10 04:54:48;;;;;;;30.90;27.98;;;17.10;99.90;;;;;;5019967;28;20045;-59
2023/09/10 04:57:14;;;;;;;32.33;29.17;;;17.10;99.90;;;;;;4997263;28;20039;-58
2023/09/10 04:59:40;;;;;;;33.70;30.48;;;17.10;99.90;;;;;;5015884;28;20041;-59
2023/09/10 05:02:06;;;;;;;28.08;25.27;;;17.10;99.90;;;;;;5018028;28;20141;-58
2023/09/10 05:04:31;;;;;;;25.50;22.83;;;17.00;99.90;;;;;;5002061;28;20049;-59
2023/09/10 05:06:58;;;;;;;26.95;24.25;;;17.00;99.90;;;;;;5018289;28;20046;-58
2023/09/10 05:09:24;;;;;;;32.05;28.95;;;17.00;99.90;;;;;;4997924;28;20053;-58
2023/09/10 05:11:50;;;;;;;26.83;24.10;;;17.00;99.90;;;;;;5001463;28;20085;-59
2023/09/10 05:14:17;;;;;;;33.30;30.08;;;17.00;99.90;;;;;;5005068;28;20037;-58
2023/09/10 05:16:42;;;;;;;26.38;23.98;;;17.00;99.90;;;;;;5000355;28;20038;-58
2023/09/10 05:19:08;;;;;;;23.80;21.63;;;17.10;99.90;;;;;;5011316;28;20052;-57
2023/09/10 05:21:34;;;;;;;29.77;26.85;;;17.10;99.90;;;;;;5018747;28;20080;-58
2023/09/10 05:24:00;;;;;;;32.17;29.10;;;17.10;99.90;;;;;;5004563;28;20085;-58
2023/09/10 05:26:25;;;;;;;31.73;28.63;;;17.10;99.90;;;;;;5000099;28;20042;-59
2023/09/10 05:28:51;;;;;;;30.80;27.90;;;17.10;99.90;;;;;;5000809;28;20437;-58
2023/09/10 05:31:17;;;;;;;31.90;28.85;;;17.10;99.90;;;;;;4978872;28;20046;-59
2023/09/10 05:33:43;;;;;;;28.45;25.73;;;17.10;99.90;;;;;;4983532;28;20129;-58
2023/09/10 05:36:08;;;;;;;30.65;27.67;;;17.10;99.90;;;;;;4996011;28;20081;-59
2023/09/10 05:38:34;;;;;;;35.97;32.50;;;17.10;99.90;;;;;;5000665;28;20049;-58
2023/09/10 05:41:04;;;;;;;29.38;25.45;;;17.20;99.90;;;;;;5015839;28;20042;-59
2023/09/10 05:43:30;;;;;;;23.75;21.58;;;17.20;99.90;;;;;;4997800;28;20044;-58
2023/09/10 05:45:57;;;;;;;31.52;28.67;;;17.20;99.90;;;;;;4995182;28;20078;-59
2023/09/10 05:48:23;;;;;;;37.55;33.85;;;17.20;99.90;;;;;;4995745;28;20049;-59
2023/09/10 05:50:49;;;;;;;37.63;33.92;;;17.20;99.90;;;;;;5002736;28;20245;-57
2023/09/10 05:53:15;;;;;;;37.45;33.80;;;17.20;99.90;;;;;;4997032;28;20033;-59
2023/09/10 05:55:41;;;;;;;31.85;28.77;;;17.30;99.90;;;;;;4996459;28;20038;-59
2023/09/10 05:58:08;;;;;;;35.42;31.90;;;17.30;99.90;;;;;;4986556;28;20116;-58
2023/09/10 06:00:34;;;;;;;27.10;24.42;;;17.30;99.90;;;;;;4986038;28;20048;-58
2023/09/10 06:03:00;;;;;;;31.90;28.90;;;17.30;99.90;;;;;;4997409;28;20042;-58
2023/09/10 06:05:26;;;;;;;29.67;26.95;;;17.40;99.90;;;;;;4993272;28;20528;-58
2023/09/10 06:07:51;;;;;;;35.17;31.77;;;17.40;99.90;;;;;;5014744;28;20141;-58
2023/09/10 06:10:17;;;;;;;34.55;31.23;;;17.50;99.90;;;;;;4999867;28;20100;-57
2023/09/10 06:12:43;;;;;;;29.70;26.70;;;17.50;99.90;;;;;;5015161;28;20129;-58
2023/09/10 06:15:09;;;;;;;27.73;24.85;;;17.60;99.90;;;;;;5000722;28;20042;-58
2023/09/10 06:17:35;;;;;;;40.53;36.53;;;17.60;99.90;;;;;;5001436;28;20505;-59
2023/09/10 06:20:02;;;;;;;46.53;41.67;;;17.70;99.90;;;;;;5004582;28;20029;-57
2023/09/10 06:22:28;;;;;;;39.70;35.75;;;17.80;99.90;;;;;;5019490;28;20046;-57
2023/09/10 06:24:54;;;;;;;34.47;30.88;;;17.90;99.90;;;;;;5005255;28;20053;-59
2023/09/10 06:27:20;;;;;;;36.55;33.00;;;18.00;99.90;;;;;;5007416;28;20049;-58
2023/09/10 06:29:46;;;;;;;36.30;32.60;;;18.00;99.90;;;;;;5003785;28;20116;-58
2023/09/10 06:32:12;;;;;;;46.78;41.88;;;18.10;99.90;;;;;;5004802;28;20172;-58
2023/09/10 06:34:38;;;;;;;41.13;37.05;;;18.20;99.90;;;;;;5003060;28;20037;-59
2023/09/10 06:37:05;;;;;;;53.13;47.47;;;18.30;99.90;;;;;;5001450;28;20528;-57
2023/09/10 06:39:38;;;;;;;53.72;48.35;;;18.40;99.90;;;;;;5000315;28;20301;-59
2023/09/10 06:42:07;;;;;;;49.50;44.33;;;18.40;99.90;;;;;;5003194;28;20086;-59
2023/09/10 06:44:33;;;;;;;53.45;48.00;;;18.50;99.90;;;;;;5000675;28;20624;-58
2023/09/10 06:47:00;;;;;;;51.47;46.05;;;18.60;99.90;;;;;;5000038;28;20048;-59
2023/09/10 06:49:26;;;;;;;54.85;49.17;;;18.70;99.90;;;;;;5003483;28;20042;-59
2023/09/10 06:51:52;;;;;;;55.60;49.75;;;18.80;99.90;;;;;;5006089;28;20497;-59
2023/09/10 06:54:18;;;;;;;49.80;44.60;;;18.80;99.90;;;;;;4991333;28;20052;-59
2023/09/10 06:56:43;;;;;;;47.08;42.13;;;18.90;99.90;;;;;;5006944;28;20030;-59
2023/09/10 06:59:09;;;;;;;43.90;38.80;;;19.00;99.90;;;;;;4997223;28;20214;-59
2023/09/10 07:01:38;;;;;;;45.92;41.22;;;19.10;99.90;;;;;;5005521;28;20042;-59
2023/09/10 07:04:17;;;;;;;46.97;42.20;;;19.20;99.90;;;;;;4987241;28;20111;-59
2023/09/10 07:06:44;;;;;;;51.70;46.70;;;19.30;99.90;;;;;;5017473;28;20046;-58
2023/09/10 07:09:10;;;;;;;51.20;45.95;;;19.40;99.90;;;;;;4973338;28;20054;-58
2023/09/10 07:11:37;;;;;;;48.70;43.58;;;19.60;99.90;;;;;;5002588;28;20042;-59
2023/09/10 07:14:02;;;;;;;48.60;43.53;;;19.70;99.90;;;;;;5013877;28;20149;-59
2023/09/10 07:16:28;;;;;;;51.45;46.13;;;19.80;99.90;;;;;;4974731;28;20564;-59
2023/09/10 07:18:54;;;;;;;48.10;43.15;;;19.90;99.90;;;;;;5002386;28;20129;-59
2023/09/10 07:21:20;;;;;;;44.55;40.08;;;20.10;99.90;;;;;;5015988;28;20041;-59
2023/09/10 07:23:46;;;;;;;44.38;39.83;;;20.10;99.90;;;;;;5004170;28;20046;-59
2023/09/10 07:26:11;;;;;;;43.38;38.78;;;20.20;99.90;;;;;;4989950;28;21193;-59
2023/09/10 07:28:37;;;;;;;47.22;42.22;;;20.40;99.90;;;;;;4977072;28;20049;-60
2023/09/10 07:31:03;;;;;;;44.28;39.72;;;20.40;99.90;;;;;;5014338;28;20421;-60
2023/09/10 07:33:28;;;;;;;45.72;40.95;;;20.50;99.90;;;;;;5000502;28;20045;-59
2023/09/10 07:35:54;;;;;;;41.92;37.78;;;20.60;99.90;;;;;;5006390;28;20046;-60
2023/09/10 07:38:20;;;;;;;41.50;36.80;;;20.70;99.90;;;;;;5005944;28;20046;-60
2023/09/10 07:40:46;;;;;;;43.88;39.50;;;20.80;99.90;;;;;;4998372;28;20042;-60
2023/09/10 07:43:13;;;;;;;44.50;40.17;;;20.90;99.90;;;;;;4998753;28;20050;-59
2023/09/10 07:45:39;;;;;;;47.08;42.17;;;21.00;99.90;;;;;;5000090;28;20410;-59
2023/09/10 07:48:05;;;;;;;39.65;35.65;;;21.10;99.90;;;;;;5005012;28;20041;-59
2023/09/10 07:50:31;;;;;;;43.47;39.13;;;21.20;99.90;;;;;;5014970;28;20198;-60
2023/09/10 07:52:57;;;;;;;44.80;40.22;;;21.30;99.90;;;;;;5014552;28;20108;-60
2023/09/10 07:55:22;;;;;;;42.85;38.75;;;21.40;99.90;;;;;;4986411;28;20038;-59
2023/09/10 07:57:49;;;;;;;43.35;39.03;;;21.60;99.90;;;;;;5016410;28;20038;-59
2023/09/10 08:00:16;;;;;;;40.97;36.88;;;21.60;99.90;;;;;;5006972;28;20046;-59
2023/09/10 08:02:42;;;;;;;38.80;34.88;;;21.80;99.90;;;;;;4997483;28;20498;-59
2023/09/10 08:05:08;;;;;;;35.67;32.10;;;21.90;99.90;;;;;;5009326;28;20042;-57
2023/09/10 08:07:34;;;;;;;41.55;37.17;;;22.00;99.90;;;;;;5006228;28;21360;-59
2023/09/10 08:10:01;;;;;;;37.00;33.00;;;22.00;99.90;;;;;;5006679;28;20049;-60
2023/09/10 08:12:27;;;;;;;34.90;31.23;;;22.20;99.90;;;;;;4996318;28;20053;-60
2023/09/10 08:14:52;;;;;;;35.22;31.55;;;22.30;99.90;;;;;;5009199;28;20125;-61
2023/09/10 08:17:18;;;;;;;34.67;31.33;;;22.40;99.90;;;;;;5013099;28;20615;-60
2023/09/10 08:19:44;;;;;;;33.63;30.35;;;22.40;99.90;;;;;;4972088;28;20117;-60
2023/09/10 08:22:09;;;;;;;37.25;33.45;;;22.50;99.90;;;;;;5003978;28;20038;-60
2023/09/10 08:24:35;;;;;;;36.03;31.77;;;22.60;99.90;;;;;;5009937;28;20050;-60
2023/09/10 08:27:05;;;;;;;33.67;29.35;;;22.70;99.90;;;;;;4992011;28;20133;-60
2023/09/10 08:29:31;;;;;;;31.33;27.88;;;22.90;99.90;;;;;;4998158;28;20074;-60
2023/09/10 08:31:58;;;;;;;29.55;26.65;;;22.90;99.90;;;;;;4999944;28;20081;-59
2023/09/10 08:34:24;;;;;;;28.85;25.92;;;23.00;99.90;;;;;;5006592;28;20052;-60
2023/09/10 08:36:50;;;;;;;28.48;25.42;;;23.10;99.90;;;;;;5006452;28;20045;-59
2023/09/10 08:39:16;;;;;;;29.40;26.50;;;23.20;99.90;;;;;;4991804;28;20471;-60
2023/09/10 08:42:03;;;;;;;29.85;26.73;;;23.30;99.90;;;;;;4998862;28;20052;-60
2023/09/10 08:44:29;;;;;;;30.42;25.92;;;23.40;99.90;;;;;;4999737;28;20088;-60
2023/09/10 08:47:00;;;;;;;24.20;21.70;;;23.50;99.90;;;;;;4994902;28;20054;-60
2023/09/10 08:49:27;;;;;;;22.70;20.48;;;23.70;99.90;;;;;;4996293;28;20196;-60
2023/09/10 08:51:55;;;;;;;21.10;19.10;;;23.80;99.90;;;;;;4993606;28;20124;-61
2023/09/10 08:54:21;;;;;;;21.73;19.45;;;23.90;99.90;;;;;;5010434;28;20030;-61
2023/09/10 08:56:48;;;;;;;21.85;19.65;;;24.00;99.90;;;;;;5001253;28;20497;-60
2023/09/10 08:59:15;;;;;;;21.02;19.00;;;24.10;99.90;;;;;;4993278;28;20081;-59
2023/09/10 09:01:44;;;;;;;21.42;19.23;;;24.20;99.90;;;;;;5009100;28;20046;-60
2023/09/10 09:04:12;;;;;;;20.50;17.60;;;24.30;99.90;;;;;;4997530;28;20580;-60
2023/09/10 09:06:43;;;;;;;21.15;18.98;;;24.40;99.90;;;;;;5023251;28;20046;-60
2023/09/10 09:09:11;;;;;;;19.42;17.27;;;24.50;99.90;;;;;;4991255;28;20325;-60
2023/09/10 09:11:38;;;;;;;20.73;18.63;;;24.60;99.90;;;;;;5006815;28;20655;-60
2023/09/10 09:14:08;;;;;;;20.00;18.00;;;24.70;99.90;;;;;;4990625;28;20046;-60
2023/09/10 09:16:34;;;;;;;19.15;17.23;;;24.80;99.90;;;;;;4979523;28;20129;-61
2023/09/10 09:19:10;;;;;;;23.98;20.35;;;24.90;99.90;;;;;;5007426;28;20060;-61
2023/09/10 09:21:39;;;;;;;20.08;18.08;;;25.00;99.90;;;;;;4987256;28;20481;-61
2023/09/10 09:24:06;;;;;;;20.42;18.40;;;25.10;99.90;;;;;;5015289;28;20046;-61
2023/09/10 09:26:33;;;;;;;22.55;16.60;;;25.30;99.90;;;;;;5004693;28;20130;-61
2023/09/10 09:29:00;;;;;;;18.25;16.48;;;25.40;99.90;;;;;;5004639;28;20053;-61
2023/09/10 09:31:26;;;;;;;18.42;16.63;;;25.50;99.90;;;;;;5009137;28;20065;-61
2023/09/10 09:33:52;;;;;;;18.55;16.63;;;25.50;99.90;;;;;;5007758;28;20115;-61
2023/09/10 09:36:18;;;;;;;16.05;14.45;;;25.70;99.90;;;;;;5006021;28;20513;-61
2023/09/10 09:38:46;;;;;;;17.50;15.65;;;25.80;99.90;;;;;;5007592;28;20124;-61
2023/09/10 09:41:16;;;;;;;15.77;13.68;;;25.90;99.90;;;;;;4994891;28;20481;-61
2023/09/10 09:43:42;;;;;;;15.98;14.38;;;26.00;99.90;;;;;;5002195;28;20494;-61
2023/09/10 09:46:08;;;;;;;14.60;12.85;;;26.10;99.90;;;;;;5008026;28;20044;-61
2023/09/10 09:48:34;;;;;;;13.75;12.35;;;26.10;99.90;;;;;;5006424;28;20579;-61
2023/09/10 09:51:02;;;;;;;14.40;13.00;;;26.20;99.90;;;;;;5023808;28;20125;-61
2023/09/10 09:53:30;;;;;;;14.18;11.70;;;26.30;99.90;;;;;;5020229;28;20521;-61
2023/09/10 09:56:04;;;;;;;14.32;12.82;;;26.40;99.90;;;;;;5015918;28;20056;-61
2023/09/10 09:58:30;;;;;;;13.95;12.57;;;26.50;99.90;;;;;;5004249;28;20434;-61
2023/09/10 10:01:00;;;;;;;15.98;13.45;;;26.60;99.90;;;;;;4990120;28;20064;-61
2023/09/10 10:03:28;;;;;;;19.23;11.68;;;26.60;99.90;;;;;;5005113;28;20184;-61
2023/09/10 10:05:54;;;;;;;17.23;13.05;;;26.60;99.90;;;;;;5005795;28;20125;-61
2023/09/10 10:08:25;;;;;;;17.95;13.18;;;26.70;99.90;;;;;;5010683;28;20044;-61
2023/09/10 10:10:51;;;;;;;18.58;14.10;;;26.80;99.90;;;;;;4991461;28;20081;-61
2023/09/10 10:13:19;;;;;;;13.57;12.10;;;26.90;99.90;;;;;;5006202;28;20046;-61
2023/09/10 10:15:51;;;;;;;15.98;12.13;;;26.90;99.90;;;;;;5004631;28;20053;-61
2023/09/10 10:18:18;;;;;;;15.18;12.30;;;27.00;99.90;;;;;;5005338;28;20058;-61
2023/09/10 10:20:49;;;;;;;17.75;12.65;;;27.10;99.90;;;;;;4997686;28;20311;-60
2023/09/10 10:23:19;;;;;;;13.07;11.07;;;27.10;99.90;;;;;;5029558;28;20045;-61
2023/09/10 10:25:46;;;;;;;12.55;11.27;;;27.20;99.90;;;;;;5003019;28;20436;-61
2023/09/10 10:28:13;;;;;;;11.50;10.27;;;27.20;99.90;;;;;;5010413;28;20054;-60
2023/09/10 10:31:01;;;;;;;16.13;11.60;;;27.30;99.90;;;;;;5000410;28;20041;-61
2023/09/10 10:33:29;;;;;;;14.45;11.45;;;27.40;99.90;;;;;;5007189;28;20254;-61
2023/09/10 10:36:25;;;;;;;13.38;10.85;;;27.50;99.90;;;;;;5010539;28;20104;-61
2023/09/10 10:38:54;;;;;;;16.42;11.27;;;27.60;99.90;;;;;;4993382;28;20104;-61
2023/09/10 10:41:27;;;;;;;12.10;10.45;;;27.60;99.90;;;;;;5003962;28;20034;-61
2023/09/10 10:43:57;;;;;;;;;;;27.70;99.90;;;;;;4982223;28;20119;-62
2023/09/10 10:46:26;;;;;;;16.95;11.45;;;27.80;99.90;;;;;;4986905;28;20324;-61
2023/09/10 10:48:52;;;;;;;19.08;11.57;;;27.90;99.90;;;;;;5002809;28;20046;-61
2023/09/10 10:51:18;;;;;;;14.93;11.88;;;27.90;99.90;;;;;;5002139;28;20038;-61
2023/09/10 10:53:46;;;;;;;15.65;10.75;;;27.90;99.90;;;;;;5002363;28;20460;-61
2023/09/10 10:56:13;;;;;;;12.63;10.82;;;28.00;99.90;;;;;;5007970;28;20248;-61
2023/09/10 10:58:41;;;;;;;13.65;12.25;;;28.10;99.90;;;;;;5008374;28;20563;-61
2023/09/10 11:01:10;;;;;;;15.82;11.48;;;28.10;99.90;;;;;;5006220;28;20042;-61
2023/09/10 11:03:36;;;;;;;12.00;10.65;;;28.10;99.90;;;;;;4990237;28;20493;-61
2023/09/10 11:06:07;;;;;;;15.18;11.43;;;28.10;99.90;;;;;;4993135;28;20080;-61
2023/09/10 11:08:36;;;;;;;14.07;11.48;;;28.20;99.90;;;;;;5011280;28;20045;-61
2023/09/10 11:11:06;;;;;;;13.52;10.70;;;28.30;99.90;;;;;;5024321;28;20042;-61
2023/09/10 11:13:32;;;;;;;12.60;11.07;;;28.30;99.90;;;;;;5013109;28;20757;-61
2023/09/10 11:16:04;;;;;;;15.57;11.05;;;28.50;99.90;;;;;;5008168;28;20464;-61
2023/09/10 11:18:36;;;;;;;12.60;11.23;;;28.60;99.90;;;;;;5013771;28;20689;-59
2023/09/10 11:21:15;;;;;;;14.70;11.70;;;28.70;99.90;;;;;;5011919;28;20455;-61
2023/09/10 11:23:53;;;;;;;14.43;11.00;;;28.80;99.80;;;;;;4991595;28;20046;-61
2023/09/10 11:26:21;;;;;;;18.17;11.05;;;28.80;99.50;;;;;;4994602;28;20048;-61
2023/09/10 11:28:53;;;;;;;12.88;9.43;;;28.70;99.70;;;;;;5011249;28;20073;-60
2023/09/10 11:31:45;;;;;;;11.48;10.30;;;28.80;99.90;;;;;;5007568;28;20049;-61
2023/09/10 11:37:09;;;;;;;11.02;9.15;;;29.00;99.60;;;;;;5010003;28;20049;-61
2023/09/10 11:39:36;;;;;;;12.10;9.07;;;29.00;99.60;;;;;;4988892;28;20111;-61
2023/09/10 11:42:04;;;;;;;10.57;8.75;;;29.10;99.60;;;;;;4993937;28;20496;-61
2023/09/10 11:44:30;;;;;;;11.40;8.23;;;29.20;99.40;;;;;;5011482;28;20098;-61
2023/09/10 11:46:55;;;;;;;13.90;10.20;;;29.40;99.60;;;;;;5016168;28;20444;-61
2023/09/10 11:49:23;;;;;;;14.90;10.25;;;29.40;99.10;;;;;;5009806;28;20046;-60
2023/09/10 11:51:51;;;;;;;12.20;9.95;;;29.30;98.50;;;;;;4998589;28;20046;-61
2023/09/10 11:54:18;;;;;;;12.48;9.25;;;29.20;98.60;;;;;;5004663;28;20148;-61
2023/09/10 11:56:48;;;;;;;17.92;9.30;;;29.10;98.40;;;;;;5003781;28;20110;-60
2023/09/10 11:59:15;;;;;;;17.02;9.43;;;29.10;98.60;;;;;;5012301;28;20081;-61
2023/09/10 12:01:45;;;;;;;12.30;8.20;;;29.00;98.70;;;;;;5027547;28;20046;-61
2023/09/10 12:04:11;;;;;;;15.30;8.68;;;29.10;98.80;;;;;;5004608;28;20045;-61
2023/09/10 12:06:37;;;;;;;17.05;9.20;;;29.10;98.60;;;;;;5007182;28;20057;-61
2023/09/10 12:09:04;;;;;;;15.25;9.23;;;29.10;98.80;;;;;;5003783;28;20046;-60
2023/09/10 12:11:31;;;;;;;13.52;9.27;;;29.20;98.80;;;;;;5004211;28;20512;-59
2023/09/10 12:13:57;;;;;;;12.70;9.27;;;29.30;98.90;;;;;;5000593;28;20614;-61
2023/09/10 12:16:23;;;;;;;18.65;10.10;;;29.30;98.20;;;;;;4988389;28;20049;-60
2023/09/10 12:18:50;;;;;;;17.27;9.00;;;29.40;98.30;;;;;;5017242;28;20038;-60
2023/09/10 12:21:18;;;;;;;16.42;9.43;;;29.30;98.30;;;;;;5002039;28;20041;-60
2023/09/10 12:23:45;;;;;;;18.83;9.10;;;29.30;98.30;;;;;;5005715;28;20034;-60
2023/09/10 12:26:11;;;;;;;13.50;7.97;;;29.40;98.20;;;;;;4996045;28;20045;-62
2023/09/10 12:28:37;;;;;;;14.82;9.23;;;29.50;98.60;;;;;;5000362;28;20042;-61
2023/09/10 12:31:04;;;;;;;16.38;8.68;;;29.60;98.40;;;;;;5000733;28;20111;-59
2023/09/10 12:33:30;;;;;;;16.42;8.68;;;29.70;98.60;;;;;;5016598;28;20048;-61